createdAt,value
2022-12-28T00:02:18.007Z,51.34
2022-12-28T00:04:47.850Z,51.79
2022-12-28T00:07:16.185Z,51.79
2022-12-28T00:09:44.459Z,51.88
2022-12-28T00:12:12.698Z,51.51
2022-12-28T00:14:40.952Z,51.84
2022-12-28T00:17:09.270Z,51.75
2022-12-28T00:19:37.572Z,51.59
2022-12-28T00:22:07.179Z,51.53
2022-12-28T00:24:35.818Z,51.54
2022-12-28T00:27:04.092Z,51.84
2022-12-28T00:29:32.323Z,51.67
2022-12-28T00:32:00.668Z,51.62
2022-12-28T00:34:29.211Z,51.84
2022-12-28T00:37:11.144Z,51.78
2022-12-28T00:39:43.190Z,52.00
2022-12-28T00:42:12.128Z,51.68
2022-12-28T00:44:41.035Z,51.77
2022-12-28T00:47:09.529Z,51.77
2022-12-28T00:49:37.832Z,51.97
2022-12-28T00:52:06.672Z,52.08
2022-12-28T00:54:34.956Z,51.67
2022-12-28T00:57:04.771Z,52.11
2022-12-28T00:59:32.977Z,52.09
2022-12-28T01:02:01.405Z,51.76
2022-12-28T01:04:31.427Z,51.94
2022-12-28T01:06:59.726Z,52.04
2022-12-28T01:09:27.993Z,51.99
2022-12-28T01:11:56.260Z,51.56
2022-12-28T01:14:26.230Z,51.90
2022-12-28T01:16:54.658Z,51.83
2022-12-28T01:19:24.149Z,52.05
2022-12-28T01:21:53.300Z,52.19
2022-12-28T01:24:21.774Z,51.88
2022-12-28T01:26:50.048Z,52.09
2022-12-28T01:29:18.375Z,51.86
2022-12-28T01:31:47.991Z,52.10
2022-12-28T01:34:16.486Z,52.04
2022-12-28T01:36:44.725Z,52.14
2022-12-28T01:39:13.031Z,52.18
2022-12-28T01:41:43.248Z,52.30
2022-12-28T01:44:41.303Z,52.36
2022-12-28T01:47:19.056Z,52.34
2022-12-28T01:49:57.607Z,52.33
2022-12-28T01:52:31.138Z,52.38
2022-12-28T01:55:05.328Z,52.41
2022-12-28T01:57:40.963Z,52.46
2022-12-28T02:00:13.902Z,52.27
2022-12-28T02:02:49.682Z,52.28
2022-12-28T02:05:19.320Z,52.14
2022-12-28T02:07:54.043Z,52.47
2022-12-28T02:10:44.493Z,52.27
2022-12-28T02:13:11.829Z,52.25
2022-12-28T02:15:40.130Z,52.33
2022-12-28T02:18:10.261Z,52.45
2022-12-28T02:21:00.034Z,52.74
2022-12-28T02:23:49.907Z,52.39
2022-12-28T02:26:48.209Z,52.66
2022-12-28T02:29:52.086Z,52.68
2022-12-28T02:32:37.843Z,52.85
2022-12-28T02:35:12.210Z,52.81
2022-12-28T02:37:47.842Z,53.15
2022-12-28T02:40:22.485Z,52.77
2022-12-28T02:42:51.845Z,52.98
2022-12-28T02:45:57.702Z,52.95
2022-12-28T02:48:43.912Z,52.77
2022-12-28T02:51:30.256Z,53.09
2022-12-28T02:54:45.343Z,52.81
2022-12-28T02:57:30.093Z,53.00
2022-12-28T03:00:06.972Z,53.04
2022-12-28T03:03:01.514Z,53.01
2022-12-28T03:05:55.500Z,52.94
2022-12-28T03:08:37.673Z,52.81
2022-12-28T03:11:11.107Z,52.94
2022-12-28T03:13:53.646Z,52.82
2022-12-28T03:16:28.957Z,53.02
2022-12-28T03:19:22.089Z,53.14
2022-12-28T03:22:11.056Z,52.92
2022-12-28T03:24:59.168Z,52.87
2022-12-28T03:27:46.818Z,53.26
2022-12-28T03:30:39.020Z,53.18
2022-12-28T03:33:07.991Z,53.46
2022-12-28T03:35:45.578Z,53.26
2022-12-28T03:38:27.398Z,53.49
2022-12-28T03:41:03.672Z,53.44
2022-12-28T03:43:42.443Z,53.56
2022-12-28T03:46:18.797Z,53.61
2022-12-28T03:48:48.445Z,53.39
2022-12-28T03:51:23.320Z,53.63
2022-12-28T03:53:51.851Z,53.29
2022-12-28T03:56:22.479Z,53.42
2022-12-28T03:58:51.221Z,53.68
2022-12-28T04:01:20.161Z,53.53
2022-12-28T04:03:48.942Z,53.61
2022-12-28T04:06:20.963Z,53.38
2022-12-28T04:08:49.710Z,53.34
2022-12-28T04:11:17.927Z,53.62
2022-12-28T04:13:46.120Z,53.44
2022-12-28T04:16:15.971Z,53.63
2022-12-28T04:18:44.571Z,53.65
2022-12-28T04:21:14.569Z,53.68
2022-12-28T04:23:45.569Z,53.74
2022-12-28T04:26:16.238Z,53.93
2022-12-28T04:28:45.319Z,54.06
2022-12-28T04:31:15.107Z,54.18
2022-12-28T04:33:43.390Z,54.10
2022-12-28T04:36:15.325Z,53.84
2022-12-28T04:38:45.073Z,54.11
2022-12-28T04:41:14.041Z,53.91
2022-12-28T04:43:42.446Z,54.17
2022-12-28T04:46:15.012Z,53.97
2022-12-28T04:48:43.474Z,53.96
2022-12-28T04:51:17.731Z,53.99
2022-12-28T04:53:47.954Z,54.37
2022-12-28T04:56:17.929Z,54.32
2022-12-28T04:58:47.727Z,54.19
2022-12-28T05:01:18.641Z,54.51
2022-12-28T05:03:55.477Z,54.46
2022-12-28T05:06:27.744Z,54.51
2022-12-28T05:08:58.064Z,54.53
2022-12-28T05:11:29.146Z,54.50
2022-12-28T05:13:58.410Z,54.56
2022-12-28T05:16:29.105Z,54.29
2022-12-28T05:18:58.467Z,54.74
2022-12-28T05:21:29.463Z,54.72
2022-12-28T05:23:59.921Z,54.42
2022-12-28T05:26:30.536Z,54.56
2022-12-28T05:29:00.706Z,54.80
2022-12-28T05:31:29.392Z,54.39
2022-12-28T05:33:57.837Z,54.39
2022-12-28T05:36:28.112Z,54.75
2022-12-28T05:38:58.727Z,54.61
2022-12-28T05:41:29.605Z,54.53
2022-12-28T05:44:00.415Z,54.44
2022-12-28T05:46:31.608Z,54.63
2022-12-28T05:49:00.997Z,54.50
2022-12-28T05:51:31.635Z,54.58
2022-12-28T05:54:04.493Z,54.27
2022-12-28T05:56:33.706Z,54.45
2022-12-28T05:59:04.738Z,54.20
2022-12-28T06:01:35.471Z,54.42
2022-12-28T06:04:06.269Z,54.39
2022-12-28T06:06:37.037Z,54.06
2022-12-28T06:09:06.824Z,53.95
2022-12-28T06:11:35.166Z,54.23
2022-12-28T06:14:05.777Z,54.29
2022-12-28T06:16:36.281Z,54.19
2022-12-28T06:19:07.607Z,54.07
2022-12-28T06:21:38.994Z,54.14
2022-12-28T06:24:10.888Z,54.21
2022-12-28T06:26:41.245Z,54.19
2022-12-28T06:29:09.763Z,54.53
2022-12-28T06:31:40.781Z,54.32
2022-12-28T06:34:11.164Z,54.51
2022-12-28T06:36:41.931Z,54.74
2022-12-28T06:39:14.160Z,54.79
2022-12-28T06:41:42.776Z,54.45
2022-12-28T06:44:14.123Z,55.03
2022-12-28T06:46:42.601Z,54.80
2022-12-28T06:49:10.850Z,54.76
2022-12-28T06:51:42.001Z,55.00
2022-12-28T06:54:12.603Z,54.90
2022-12-28T06:56:41.156Z,54.86
2022-12-28T06:59:09.647Z,54.97
2022-12-28T07:01:40.153Z,55.21
2022-12-28T07:04:11.156Z,54.93
2022-12-28T07:06:44.346Z,54.75
2022-12-28T07:09:16.771Z,55.04
2022-12-28T07:11:45.506Z,54.99
2022-12-28T07:14:14.063Z,55.06
2022-12-28T07:16:44.012Z,55.26
2022-12-28T07:19:12.601Z,55.06
2022-12-28T07:21:41.589Z,55.23
2022-12-28T07:24:10.805Z,55.34
2022-12-28T07:26:40.412Z,55.12
2022-12-28T07:29:09.868Z,54.99
2022-12-28T07:31:45.372Z,55.20
2022-12-28T07:34:14.634Z,55.24
2022-12-28T07:36:42.879Z,55.51
2022-12-28T07:39:11.214Z,55.26
2022-12-28T07:41:40.801Z,55.32
2022-12-28T07:44:09.047Z,55.26
2022-12-28T07:46:38.676Z,55.29
2022-12-28T07:49:07.814Z,55.60
2022-12-28T07:51:37.963Z,55.79
2022-12-28T07:54:07.120Z,55.35
2022-12-28T07:59:07.491Z,55.50
2022-12-28T08:01:38.276Z,55.30
2022-12-28T08:04:09.319Z,55.22
2022-12-28T08:06:40.092Z,55.54
2022-12-28T08:09:11.406Z,55.17
2022-12-28T08:11:42.400Z,55.37
2022-12-28T08:14:12.947Z,55.08
2022-12-28T08:16:43.371Z,55.34
2022-12-28T08:19:12.455Z,55.47
2022-12-28T08:21:44.207Z,55.40
2022-12-28T08:24:16.661Z,55.67
2022-12-28T08:26:45.678Z,55.86
2022-12-28T08:29:19.101Z,56.02
2022-12-28T08:31:48.380Z,55.77
2022-12-28T08:34:19.241Z,55.78
2022-12-28T08:36:48.004Z,55.57
2022-12-28T08:39:16.253Z,55.53
2022-12-28T08:41:44.699Z,55.46
2022-12-28T08:44:14.330Z,55.39
2022-12-28T08:46:42.725Z,55.89
2022-12-28T08:49:11.128Z,55.64
2022-12-28T08:51:41.572Z,55.48
2022-12-28T08:54:11.750Z,55.46
2022-12-28T08:56:42.758Z,55.67
2022-12-28T08:59:16.208Z,55.66
2022-12-28T09:01:45.340Z,55.62
2022-12-28T09:04:17.187Z,55.85
2022-12-28T09:06:45.552Z,55.63
2022-12-28T09:09:16.452Z,55.87
2022-12-28T09:11:45.264Z,56.01
2022-12-28T09:14:23.245Z,56.25
2022-12-28T09:16:52.908Z,56.14
2022-12-28T09:19:21.991Z,56.14
2022-12-28T09:21:52.676Z,56.51
2022-12-28T09:24:21.166Z,56.67
2022-12-28T09:26:52.508Z,56.41
2022-12-28T09:29:22.368Z,56.33
2022-12-28T09:31:50.735Z,56.21
2022-12-28T09:34:36.788Z,56.23
2022-12-28T09:37:07.010Z,56.35
2022-12-28T09:39:35.672Z,55.99
2022-12-28T09:42:07.853Z,56.16
2022-12-28T09:44:56.036Z,56.14
2022-12-28T09:47:32.160Z,56.30
2022-12-28T09:50:29.829Z,56.83
2022-12-28T09:53:21.220Z,56.67
2022-12-28T09:56:00.034Z,56.92
2022-12-28T09:58:31.209Z,57.06
2022-12-28T10:01:02.962Z,56.85
2022-12-28T10:03:38.050Z,56.68
2022-12-28T10:06:13.370Z,56.68
2022-12-28T10:08:46.125Z,56.55
2022-12-28T10:11:20.461Z,56.45
2022-12-28T10:13:55.867Z,56.61
2022-12-28T10:16:29.384Z,56.34
2022-12-28T10:18:57.751Z,56.43
2022-12-28T10:21:32.699Z,56.48
2022-12-28T10:24:30.187Z,56.39
2022-12-28T10:26:52.132Z,56.43
2022-12-28T10:29:23.340Z,56.09
2022-12-28T10:32:03.265Z,56.18
2022-12-28T10:34:35.215Z,56.30
2022-12-28T10:37:14.080Z,55.78
2022-12-28T10:39:51.627Z,55.96
2022-12-28T10:42:25.838Z,55.78
2022-12-28T10:44:57.058Z,55.73
2022-12-28T10:47:35.493Z,55.47
2022-12-28T10:52:58.998Z,55.59
2022-12-28T10:55:33.744Z,55.47
2022-12-28T10:58:29.693Z,55.53
2022-12-28T11:01:02.296Z,55.83
2022-12-28T11:03:35.817Z,55.94
2022-12-28T11:06:19.885Z,56.33
2022-12-28T11:09:06.240Z,56.52
2022-12-28T11:11:35.363Z,56.84
2022-12-28T11:14:15.488Z,56.78
2022-12-28T11:16:44.629Z,56.50
2022-12-28T11:19:14.715Z,56.32
2022-12-28T11:21:44.128Z,56.42
2022-12-28T11:24:16.011Z,55.79
2022-12-28T11:26:46.610Z,55.53
2022-12-28T11:29:17.249Z,55.48
2022-12-28T11:31:51.451Z,55.07
2022-12-28T11:34:27.843Z,54.82
2022-12-28T11:36:56.454Z,54.67
2022-12-28T11:39:50.294Z,54.59
2022-12-28T11:43:00.017Z,54.08
2022-12-28T11:45:53.259Z,54.26
2022-12-28T11:48:59.335Z,54.47
2022-12-28T11:51:30.916Z,54.46
2022-12-28T11:54:01.881Z,54.18
2022-12-28T11:57:00.320Z,54.24
2022-12-28T11:59:31.076Z,53.96
2022-12-28T12:02:01.149Z,54.06
2022-12-28T12:04:40.163Z,53.95
2022-12-28T12:07:51.888Z,53.93
2022-12-28T12:10:34.053Z,53.52
2022-12-28T12:13:20.348Z,53.70
2022-12-28T12:15:51.146Z,53.62
2022-12-28T12:18:23.862Z,53.51
2022-12-28T12:20:58.557Z,53.30
2022-12-28T12:23:40.444Z,53.41
2022-12-28T12:26:27.682Z,53.36
2022-12-28T12:29:01.154Z,53.43
2022-12-28T12:31:33.177Z,53.34
2022-12-28T12:34:14.530Z,53.32
2022-12-28T12:37:36.259Z,53.52
2022-12-28T12:40:57.340Z,53.32
2022-12-28T12:43:34.511Z,53.52
2022-12-28T12:46:32.174Z,53.53
2022-12-28T12:49:33.799Z,53.58
2022-12-28T12:52:12.353Z,53.54
2022-12-28T12:55:02.467Z,53.64
2022-12-28T12:57:45.035Z,53.66
2022-12-28T13:00:17.626Z,53.58
2022-12-28T13:03:20.199Z,53.95
2022-12-28T13:05:55.213Z,53.88
2022-12-28T13:08:31.064Z,53.71
2022-12-28T13:10:59.393Z,53.75
2022-12-28T13:13:36.207Z,53.66
2022-12-28T13:16:10.456Z,53.68
2022-12-28T13:18:46.371Z,53.62
2022-12-28T13:21:22.097Z,53.71
2022-12-28T13:23:51.861Z,53.70
2022-12-28T13:26:27.676Z,53.80
2022-12-28T13:29:01.213Z,53.73
2022-12-28T13:31:36.462Z,53.85
2022-12-28T13:34:07.688Z,53.70
2022-12-28T13:36:35.959Z,53.77
2022-12-28T13:39:09.980Z,53.78
2022-12-28T13:41:39.967Z,53.76
2022-12-28T13:44:34.165Z,53.68
2022-12-28T13:47:10.183Z,53.69
2022-12-28T13:49:44.666Z,53.69
2022-12-28T13:52:19.395Z,53.67
2022-12-28T13:54:52.472Z,53.70
2022-12-28T14:00:15.932Z,53.59
2022-12-28T14:02:44.299Z,53.53
2022-12-28T14:05:18.648Z,53.55
2022-12-28T14:07:48.463Z,53.62
2022-12-28T14:10:17.513Z,53.48
2022-12-28T14:12:46.972Z,53.44
2022-12-28T14:15:17.858Z,53.59
2022-12-28T14:17:48.332Z,53.46
2022-12-28T14:20:16.622Z,53.39
2022-12-28T14:22:45.509Z,53.20
2022-12-28T14:25:17.366Z,53.16
2022-12-28T14:27:57.241Z,53.12
2022-12-28T14:30:30.037Z,52.98
2022-12-28T14:33:07.139Z,53.09
2022-12-28T14:35:50.262Z,53.02
2022-12-28T14:38:22.333Z,53.00
2022-12-28T14:40:55.970Z,52.91
2022-12-28T14:43:27.929Z,53.18
2022-12-28T14:46:05.039Z,53.02
2022-12-28T14:48:40.542Z,53.09
2022-12-28T14:51:29.013Z,53.07
2022-12-28T14:54:24.581Z,53.03
2022-12-28T14:57:00.467Z,52.99
2022-12-28T14:59:33.739Z,53.12
2022-12-28T15:02:04.602Z,53.04
2022-12-28T15:04:39.153Z,52.97
2022-12-28T15:07:09.532Z,53.20
2022-12-28T15:09:37.879Z,53.15
2022-12-28T15:12:14.894Z,53.21
2022-12-28T15:14:44.051Z,53.29
2022-12-28T15:17:14.064Z,53.33
2022-12-28T15:19:44.912Z,53.26
2022-12-28T15:22:13.869Z,53.20
2022-12-28T15:24:45.333Z,53.30
2022-12-28T15:27:13.923Z,53.30
2022-12-28T15:32:31.842Z,53.45
2022-12-28T15:35:00.100Z,53.40
2022-12-28T15:37:28.389Z,53.42
2022-12-28T15:39:56.656Z,53.17
2022-12-28T15:42:24.999Z,53.40
2022-12-28T15:44:54.097Z,53.33
2022-12-28T15:47:23.329Z,53.33
2022-12-28T15:49:53.069Z,53.24
2022-12-28T15:52:21.391Z,53.25
2022-12-28T15:54:49.713Z,53.33
2022-12-28T15:57:18.135Z,53.26
2022-12-28T15:59:47.156Z,53.12
2022-12-28T16:02:16.504Z,53.33
2022-12-28T16:04:44.986Z,53.42
2022-12-28T16:07:15.116Z,53.30
2022-12-28T16:09:43.407Z,53.42
2022-12-28T16:12:17.151Z,53.30
2022-12-28T16:14:47.781Z,53.32
2022-12-28T16:17:16.661Z,53.39
2022-12-28T16:19:44.856Z,53.32
2022-12-28T16:22:14.444Z,53.48
2022-12-28T16:24:42.690Z,52.91
2022-12-28T16:27:11.187Z,53.08
2022-12-28T16:29:39.498Z,53.08
2022-12-28T16:32:08.187Z,52.84
2022-12-28T16:34:36.510Z,52.91
2022-12-28T16:37:05.026Z,52.88
2022-12-28T16:39:34.906Z,52.88
2022-12-28T16:42:03.296Z,52.84
2022-12-28T16:44:31.693Z,52.72
2022-12-28T16:47:00.145Z,52.76
2022-12-28T16:49:29.654Z,52.52
2022-12-28T16:51:58.456Z,52.67
2022-12-28T16:54:28.298Z,52.63
2022-12-28T16:56:57.985Z,52.58
2022-12-28T16:59:29.306Z,52.55
2022-12-28T17:01:59.322Z,52.46
2022-12-28T17:04:28.217Z,52.58
2022-12-28T17:06:56.501Z,52.53
2022-12-28T17:09:24.763Z,52.44
2022-12-28T17:11:53.070Z,52.54
2022-12-28T17:14:36.790Z,52.40
2022-12-28T17:17:06.227Z,52.29
2022-12-28T17:19:34.774Z,52.40
2022-12-28T17:22:04.084Z,52.20
2022-12-28T17:24:32.614Z,52.13
2022-12-28T17:27:07.464Z,52.11
2022-12-28T17:29:38.971Z,52.17
2022-12-28T17:32:08.657Z,52.01
2022-12-28T17:34:37.504Z,52.01
2022-12-28T17:37:06.443Z,52.03
2022-12-28T17:39:40.388Z,51.92
2022-12-28T17:42:10.371Z,51.74
2022-12-28T17:44:40.129Z,51.85
2022-12-28T17:47:09.100Z,51.90
2022-12-28T17:49:37.463Z,51.75
2022-12-28T17:52:06.046Z,51.79
2022-12-28T17:54:34.959Z,51.74
2022-12-28T17:57:03.306Z,51.75
2022-12-28T17:59:31.929Z,51.77
2022-12-28T18:02:05.017Z,51.79
2022-12-28T18:04:34.624Z,51.92
2022-12-28T18:07:03.176Z,51.75
2022-12-28T18:09:31.541Z,51.86
2022-12-28T18:11:59.991Z,51.99
2022-12-28T18:14:29.287Z,52.04
2022-12-28T18:16:57.810Z,52.10
2022-12-28T18:19:27.643Z,52.15
2022-12-28T18:21:56.003Z,52.15
2022-12-28T18:24:24.699Z,52.16
2022-12-28T18:26:53.108Z,52.23
2022-12-28T18:29:21.486Z,52.09
2022-12-28T18:31:49.949Z,52.21
2022-12-28T18:34:18.424Z,51.94
2022-12-28T18:36:48.298Z,51.89
2022-12-28T18:39:16.677Z,52.05
2022-12-28T18:41:45.060Z,52.07
2022-12-28T18:44:13.383Z,52.09
2022-12-28T18:46:41.858Z,51.89
2022-12-28T18:49:10.703Z,51.90
2022-12-28T18:51:39.027Z,51.91
2022-12-28T18:54:08.797Z,52.00
2022-12-28T18:56:37.167Z,51.84
2022-12-28T18:59:05.612Z,52.13
2022-12-28T19:04:25.365Z,52.04
2022-12-28T19:06:53.929Z,52.10
2022-12-28T19:09:23.694Z,51.92
2022-12-28T19:11:52.839Z,51.87
2022-12-28T19:14:21.159Z,52.07
2022-12-28T19:16:49.434Z,51.94
2022-12-28T19:19:17.986Z,51.93
2022-12-28T19:21:46.690Z,52.04
2022-12-28T19:24:17.053Z,52.04
2022-12-28T19:26:47.993Z,52.08
2022-12-28T19:29:17.304Z,52.16
2022-12-28T19:31:45.878Z,51.98
2022-12-28T19:34:15.741Z,52.07
2022-12-28T19:36:44.074Z,52.15
2022-12-28T19:39:12.934Z,52.30
2022-12-28T19:41:41.199Z,52.39
2022-12-28T19:44:10.883Z,52.34
2022-12-28T19:46:39.537Z,52.14
2022-12-28T19:49:07.912Z,52.19
2022-12-28T19:51:36.172Z,52.36
2022-12-28T19:54:04.711Z,52.23
2022-12-28T19:56:33.303Z,52.16
2022-12-28T19:59:06.520Z,52.14
2022-12-28T20:01:38.977Z,52.28
2022-12-28T20:04:13.654Z,52.37
2022-12-28T20:06:44.584Z,52.34
2022-12-28T20:09:14.340Z,52.25
2022-12-28T20:11:43.314Z,52.35
2022-12-28T20:14:14.127Z,52.46
2022-12-28T20:16:44.492Z,52.36
2022-12-28T20:19:13.980Z,52.44
2022-12-28T20:21:42.688Z,52.29
2022-12-28T20:24:13.679Z,52.34
2022-12-28T20:26:42.356Z,51.95
2022-12-28T20:29:10.898Z,52.07
2022-12-28T20:31:39.293Z,52.20
2022-12-28T20:34:09.084Z,51.93
2022-12-28T20:36:37.755Z,51.91
2022-12-28T20:39:06.207Z,52.27
2022-12-28T20:41:52.254Z,51.70
2022-12-28T20:44:25.833Z,52.00
2022-12-28T20:46:55.313Z,51.82
2022-12-28T20:49:26.699Z,52.07
2022-12-28T20:51:56.117Z,52.07
2022-12-28T20:54:25.301Z,51.85
2022-12-28T20:56:55.773Z,51.96
2022-12-28T20:59:26.037Z,51.84
2022-12-28T21:01:55.358Z,52.09
2022-12-28T21:04:26.011Z,52.31
2022-12-28T21:06:55.170Z,52.27
2022-12-28T21:09:23.551Z,52.34
2022-12-28T21:11:51.987Z,52.71
2022-12-28T21:14:20.530Z,52.44
2022-12-28T21:16:49.241Z,52.54
2022-12-28T21:19:17.797Z,52.82
2022-12-28T21:21:49.426Z,52.72
2022-12-28T21:24:17.695Z,52.57
2022-12-28T21:26:46.014Z,52.35
2022-12-28T21:29:14.794Z,52.38
2022-12-28T21:31:45.273Z,52.44
2022-12-28T21:34:13.647Z,52.37
2022-12-28T21:36:41.992Z,52.23
2022-12-28T21:39:11.726Z,52.36
2022-12-28T21:41:52.772Z,52.35
2022-12-28T21:44:24.415Z,51.96
2022-12-28T21:46:54.148Z,52.26
2022-12-28T21:49:22.791Z,52.10
2022-12-28T21:51:51.600Z,52.44
2022-12-28T21:54:22.786Z,52.17
2022-12-28T21:56:53.620Z,52.29
2022-12-28T21:59:23.540Z,52.12
2022-12-28T22:02:10.453Z,52.15
2022-12-28T22:05:02.110Z,52.37
2022-12-28T22:07:30.784Z,52.19
2022-12-28T22:10:17.744Z,52.12
2022-12-28T22:12:46.207Z,52.16
2022-12-28T22:15:43.283Z,52.16
2022-12-28T22:18:44.569Z,52.17
2022-12-28T22:21:08.268Z,52.10
2022-12-28T22:23:36.533Z,52.33
2022-12-28T22:26:06.394Z,52.26
2022-12-28T22:28:34.717Z,52.09
2022-12-28T22:31:05.877Z,52.29
2022-12-28T22:33:34.238Z,52.34
2022-12-28T22:36:11.241Z,52.07
2022-12-28T22:38:39.577Z,52.28
2022-12-28T22:41:09.596Z,52.13
2022-12-28T22:43:38.439Z,52.45
2022-12-28T22:46:09.983Z,52.38
2022-12-28T22:48:39.070Z,52.28
2022-12-28T22:51:09.919Z,52.16
2022-12-28T22:53:39.169Z,51.97
2022-12-28T22:56:12.756Z,51.99
2022-12-28T22:58:41.010Z,52.13
2022-12-28T23:01:12.905Z,52.15
2022-12-28T23:03:42.575Z,51.95
2022-12-28T23:06:12.511Z,52.35
2022-12-28T23:08:41.081Z,52.26
2022-12-28T23:11:35.757Z,52.33
2022-12-28T23:14:19.460Z,52.22
2022-12-28T23:16:47.921Z,52.09
2022-12-28T23:19:34.426Z,52.19
2022-12-28T23:22:20.986Z,52.47
2022-12-28T23:25:06.580Z,52.16
2022-12-28T23:27:38.996Z,52.39
2022-12-28T23:30:11.939Z,51.99
2022-12-28T23:32:40.349Z,52.44
2022-12-28T23:35:09.596Z,52.41
2022-12-28T23:37:37.914Z,52.45
2022-12-28T23:40:07.819Z,52.19
2022-12-28T23:42:38.346Z,52.16
2022-12-28T23:45:09.646Z,52.17
2022-12-28T23:47:38.581Z,52.24
2022-12-28T23:50:08.175Z,52.18
2022-12-28T23:52:36.650Z,52.50
2022-12-28T23:55:05.817Z,52.47
2022-12-28T23:57:34.032Z,52.50
